x

Smith Island, Wa (sisw1) Weather Station

7:00 - Sat 28th Feb 2015 All times are PST. -8 hours from GMT.

  • Wind
    30mph, 33mph gusts
  • Aire Temp 45°f
  • Sea Pressure 1021.2mb
  • Smith Island, Wa
  • Smith Island, Wa

More Historic Weather Station data

Upgrade to MSW Pro to gain access to the past 30 days of data for over 8000 Wavebouys and Weather Stations around the globe.

Join Pro

Comparision Forecast

View Surf forecast
   
sáb 02/28 7:00 30 33 mph 1021.2mb 45f
6:00 26 31 mph 1020.4mb 45f
5:00 30 33 mph 1019.6mb 46f
4:00 25 28 mph 1018.8mb 46f
3:00 28 30 mph 1018.3mb 46f
2:00 31 38 mph 1017.9mb 46f
1:00 32 36 mph 1016.9mb 47f
12:00 32 37 mph 1015.8mb 47f
vie 02/27 11:00 30 33 mph 1014.8mb 48f
10:00 30 33 mph 1013.8mb 48f
9:00 29 34 mph 1012.9mb 48f
8:00 26 31 mph 1012.1mb 49f
7:00 29 33 mph 1011.5mb 50f
6:00 21 23 mph 1011mb 50f
5:00 14 15 mph 1010.3mb 49f
4:00 14 16 mph 1010.3mb 48f
3:00 15 17 mph 1009.9mb 48f
2:00 16 18 mph 1009.4mb 47f
1:00 9 10 mph 1009.3mb 47f
12:00 10 11 mph 1009.6mb 46f
11:00 10 13 mph 1009.4mb 46f
10:00 11 13 mph 1008.9mb 46f
9:00 13
mph
1008.6mb 45f
8:00 11 14 mph 1008.2mb 45f
7:00 10 11 mph 1007.6mb 45f
6:00 13 14 mph 1007.6mb 46f
5:00 15 16 mph 1007.5mb 45f
4:00 14 16 mph 1007.6mb 46f
3:00 14 16 mph 1007.8mb 46f
2:00 16 17 mph 1008.3mb 46f
1:00 13 15 mph 1008.6mb 47f
12:00 11 13 mph 1009.2mb 47f
jue 02/26 11:00 13 15 mph 1009.8mb 47f
10:00 14 15 mph 1010.6mb 47f
9:00 13 14 mph 1011.5mb 47f
8:00 9
mph
1012.4mb 47f
7:00 8
mph
1013.3mb 47f
6:00 10 11 mph 1014.1mb 47f
5:00 7
mph
1015.1mb 48f
4:00 3 5 mph 1016.1mb 50f
3:00 3 5 mph 1017.2mb 49f
2:00 7 9 mph 1017.9mb 49f
1:00 7 8 mph 1018.9mb 48f
12:00 8
mph
1019.9mb 48f
11:00 9 10 mph 1020.4mb 48f
10:00 6 7 mph 1021.3mb 47f
9:00 1 2 mph 1021.7mb 47f
8:00 2 3 mph 1021.6mb 46f
7:00 5
mph
1021.5mb 46f
6:00 6
mph
1022.2mb 46f
5:00 2 3 mph 1022.4mb 46f
4:00  -  1 mph 1023.1mb 47f
3:00  -  mph 1023.5mb 47f
2:00 2
mph
1023.8mb 47f
1:00 5 6 mph 1024mb 47f
12:00 8 9 mph 1024.4mb 47f
mié 02/25 11:00 6 7 mph 1024.6mb 47f
10:00 7 8 mph 1025mb 47f
9:00 3 5 mph 1025.2mb 47f
8:00 5 6 mph 1025.3mb 47f
7:00 6
mph
1025.6mb 46f
6:00 6
mph
1026mb 46f
5:00 6
mph
1026.7mb 46f
4:00 2
mph
1027.3mb 47f
3:00 5 7 mph 1027.7mb 47f
2:00 3
mph
1028mb 48f
1:00 3 5 mph 1028.3mb 49f
12:00 7 8 mph 1029mb 48f
11:00 6 7 mph 1029.5mb 48f
10:00 10 11 mph 1029.2mb 47f
9:00 11 13 mph 1029.6mb 47f
8:00 10 11 mph 1029.6mb 46f
7:00 8 9 mph 1029.4mb 46f
6:00 7 9 mph 1029.6mb 47f
5:00 9 11 mph 1029.7mb 47f
4:00 10 11 mph 1029.3mb 47f
3:00 9 10 mph 1029.4mb 47f
2:00 9 11 mph 1028.9mb 47f
1:00 11 13 mph 1028.8mb 47f
12:00 11 13 mph 1028.5mb 48f
mar 02/24 11:00 11 13 mph 1028mb 47f
10:00 14 16 mph 1028.1mb 48f
9:00 20 22 mph 1027.6mb 48f
8:00 11 16 mph 1027.4mb 48f
7:00 18 23 mph 1027.2mb 49f
6:00 20 22 mph 1026.7mb 49f
5:00 20 23 mph 1026.6mb 49f